Time;durP1;ratioP1;P1;durP2;ratioP2;P2;SDS_P1;SDS_P2;PMS_P1;PMS_P2;Temp;Humidity;BMP_temperature;BMP_pressure;BME280_temperature;BME280_humidity;BME280_pressure;Samples;Min_cycle;Max_cycle;Signal;HPM_P1;HPM_P2
2023/10/30 00:01:37;;;;;;;6.07;1.23;;;13.10;74.90;;;;;;5036375;28;20460;-80
2023/10/30 00:04:05;;;;;;;12.43;1.40;;;13.10;56.90;;;;;;5036300;28;20492;-80
2023/10/30 00:06:32;;;;;;;6.10;2.43;;;13.00;92.90;;;;;;5035167;28;20484;-79
2023/10/30 00:08:59;;;;;;;5.30;3.13;;;13.10;70.90;;;;;;5036041;28;20448;-79
2023/10/30 00:11:27;;;;;;;4.73;1.10;;;13.10;44.00;;;;;;5037417;28;20461;-79
2023/10/30 00:13:54;;;;;;;6.13;1.87;;;13.10;58.20;;;;;;5037498;28;20486;-78
2023/10/30 00:16:26;;;;;;;5.73;1.37;;;13.00;30.20;;;;;;5037237;28;20487;-79
2023/10/30 00:18:56;;;;;;;11.70;1.90;;;13.10;40.20;;;;;;5040258;28;20515;-80
2023/10/30 00:21:23;;;;;;;5.03;1.20;;;13.10;29.00;;;;;;5042113;28;20817;-79
2023/10/30 00:23:50;;;;;;;2.83;1.13;;;13.00;37.30;;;;;;5041495;28;20599;-80
2023/10/30 00:26:17;;;;;;;3.67;1.20;;;13.10;37.20;;;;;;5041767;28;20489;-80
2023/10/30 00:28:44;;;;;;;6.17;1.50;;;13.20;32.30;;;;;;5040589;28;20484;-80
2023/10/30 00:31:10;;;;;;;4.27;1.13;;;13.10;21.60;;;;;;5039897;28;20465;-79
2023/10/30 00:33:37;;;;;;;7.27;1.50;;;13.20;27.30;;;;;;5040231;28;20472;-79
2023/10/30 00:36:06;;;;;;;6.50;1.30;;;13.10;30.00;;;;;;5041300;28;20474;-80
2023/10/30 00:38:33;;;;;;;7.83;1.83;;;13.10;34.40;;;;;;5039420;28;20480;-80
2023/10/30 00:40:59;;;;;;;10.10;2.17;;;13.10;37.10;;;;;;5040242;28;20453;-79
2023/10/30 00:43:37;;;;;;;4.87;2.33;;;13.10;39.60;;;;;;5039752;28;20485;-80
2023/10/30 00:46:04;;;;;;;8.57;1.30;;;13.10;35.10;;;;;;5039640;28;20484;-79
2023/10/30 00:48:31;;;;;;;9.10;2.63;;;13.10;78.40;;;;;;5038691;28;20826;-79
2023/10/30 00:50:57;;;;;;;7.10;1.87;;;13.10;55.80;;;;;;5038676;28;20782;-79
2023/10/30 00:53:25;;;;;;;10.40;1.50;;;13.10;29.10;;;;;;5040509;28;20472;-80
2023/10/30 00:55:52;;;;;;;4.50;1.57;;;13.10;44.80;;;;;;5039977;28;20458;-80
2023/10/30 00:58:20;;;;;;;2.93;1.27;;;13.20;33.70;;;;;;5039386;28;20464;-80
2023/10/30 01:00:47;;;;;;;4.50;1.30;;;13.20;31.60;;;;;;5039166;28;20455;-79
2023/10/30 01:03:15;;;;;;;5.30;1.13;;;13.10;41.50;;;;;;5039780;28;20506;-79
2023/10/30 01:05:45;;;;;;;5.40;1.40;;;13.10;44.10;;;;;;5039578;28;20475;-79
2023/10/30 01:08:12;;;;;;;6.60;1.57;;;13.20;94.30;;;;;;5039610;28;20449;-78
2023/10/30 01:10:40;;;;;;;6.93;1.27;;;13.10;51.30;;;;;;5038635;28;20459;-80
2023/10/30 01:13:07;;;;;;;5.13;1.50;;;13.10;76.40;;;;;;5039621;28;20474;-80
2023/10/30 01:15:34;;;;;;;7.70;1.80;;;13.00;68.60;;;;;;5040598;28;20451;-79
2023/10/30 01:18:00;;;;;;;5.03;1.20;;;12.90;95.60;;;;;;5037969;28;20457;-79
2023/10/30 01:20:27;;;;;;;3.83;1.33;;;13.00;99.90;;;;;;5038142;28;20456;-80
2023/10/30 01:23:11;;;;;;;6.13;1.90;;;13.00;99.90;;;;;;5039302;28;20465;-80
2023/10/30 01:25:37;;;;;;;7.93;2.10;;;13.00;90.00;;;;;;5039565;28;20836;-80
2023/10/30 01:28:12;;;;;;;8.60;1.70;;;13.00;83.90;;;;;;5036732;28;20476;-80
2023/10/30 01:30:39;;;;;;;3.30;1.47;;;13.00;96.20;;;;;;5038743;28;20450;-79
2023/10/30 01:33:06;;;;;;;6.63;1.70;;;13.00;98.50;;;;;;5038352;28;20505;-80
2023/10/30 01:35:33;;;;;;;5.20;1.47;;;13.10;99.90;;;;;;5038588;28;20459;-79
2023/10/30 01:38:00;;;;;;;3.67;1.27;;;13.00;99.90;;;;;;5037944;28;20465;-80
2023/10/30 01:40:26;;;;;;;8.00;1.47;;;13.10;99.90;;;;;;5038607;28;20451;-79
2023/10/30 01:42:53;;;;;;;7.03;2.13;;;13.10;99.90;;;;;;5038496;28;20543;-79
2023/10/30 01:45:29;;;;;;;6.70;1.60;;;13.10;87.20;;;;;;5038935;28;20452;-80
2023/10/30 01:47:56;;;;;;;6.97;2.10;;;13.10;99.90;;;;;;5041582;28;20476;-78
2023/10/30 01:50:23;;;;;;;5.13;1.47;;;13.20;99.90;;;;;;5041523;28;20474;-79
2023/10/30 01:52:50;;;;;;;4.83;1.13;;;13.20;99.90;;;;;;5037934;28;20462;-78
2023/10/30 01:55:17;;;;;;;6.47;1.97;;;13.20;99.90;;;;;;5039225;28;20827;-79
2023/10/30 01:57:44;;;;;;;3.80;1.27;;;13.10;99.90;;;;;;5037734;28;20452;-79
2023/10/30 02:00:14;;;;;;;5.63;1.50;;;13.10;99.90;;;;;;5038197;28;20490;-79
2023/10/30 02:02:44;;;;;;;9.43;1.30;;;13.10;99.90;;;;;;5038019;28;20464;-79
2023/10/30 02:05:13;;;;;;;6.43;1.47;;;13.10;99.90;;;;;;5038215;28;20492;-79
2023/10/30 02:07:40;;;;;;;9.00;2.00;;;13.20;99.90;;;;;;5038800;28;20528;-79
2023/10/30 02:10:08;;;;;;;3.67;1.40;;;13.20;99.90;;;;;;5038833;28;20464;-80
2023/10/30 02:12:35;;;;;;;5.23;1.30;;;13.10;99.90;;;;;;5037074;28;20457;-78
2023/10/30 02:15:03;;;;;;;6.00;1.53;;;13.20;99.90;;;;;;5034766;28;20479;-79
2023/10/30 02:17:30;;;;;;;4.00;1.30;;;13.20;99.90;;;;;;5037989;28;20443;-79
2023/10/30 02:20:00;;;;;;;6.03;1.63;;;13.30;99.90;;;;;;5035980;28;20452;-78
2023/10/30 02:22:27;;;;;;;7.67;1.97;;;13.30;99.90;;;;;;5036358;28;20445;-80
2023/10/30 02:24:53;;;;;;;8.07;2.60;;;13.20;99.90;;;;;;5039034;28;20489;-79
2023/10/30 02:27:21;;;;;;;5.90;1.70;;;13.10;96.10;;;;;;5038845;28;20491;-79
2023/10/30 02:29:48;;;;;;;4.40;1.67;;;13.20;99.90;;;;;;5038508;28;20454;-79
2023/10/30 02:32:15;;;;;;;7.57;1.90;;;13.20;99.90;;;;;;5038813;28;20519;-80
2023/10/30 02:34:42;;;;;;;8.30;2.23;;;13.20;99.90;;;;;;5037809;28;20907;-79
2023/10/30 02:37:11;;;;;;;6.33;1.80;;;13.10;99.90;;;;;;5038635;28;20825;-78
2023/10/30 02:39:38;;;;;;;10.30;2.30;;;13.10;99.90;;;;;;5037311;28;20817;-80
2023/10/30 02:42:05;;;;;;;3.70;1.13;;;13.10;99.90;;;;;;5037394;28;20536;-80
2023/10/30 02:44:33;;;;;;;2.80;1.63;;;13.10;99.90;;;;;;5037930;28;20832;-78
2023/10/30 02:47:00;;;;;;;5.80;1.40;;;13.10;99.90;;;;;;5037087;28;20497;-79
2023/10/30 02:49:27;;;;;;;3.97;1.70;;;13.10;99.90;;;;;;5036526;28;20448;-78
2023/10/30 02:51:54;;;;;;;6.10;1.33;;;13.00;99.90;;;;;;5036637;28;21001;-79
2023/10/30 02:54:21;;;;;;;7.10;1.10;;;13.00;99.90;;;;;;5037519;28;20479;-80
2023/10/30 02:56:47;;;;;;;8.43;1.63;;;13.10;99.90;;;;;;5035937;28;20483;-79
2023/10/30 02:59:14;;;;;;;9.37;1.67;;;13.10;99.90;;;;;;5035145;28;20463;-79
2023/10/30 03:01:42;;;;;;;6.77;1.80;;;13.10;99.90;;;;;;5036302;28;20470;-80
2023/10/30 03:04:12;;;;;;;5.23;1.20;;;13.10;99.90;;;;;;5027568;28;20474;-79
2023/10/30 03:06:40;;;;;;;5.50;1.50;;;13.10;99.90;;;;;;5036025;28;20505;-79
2023/10/30 03:09:07;;;;;;;5.47;1.83;;;13.10;99.90;;;;;;5035742;28;20452;-80
2023/10/30 03:11:35;;;;;;;4.53;1.63;;;13.10;99.90;;;;;;5036365;28;20453;-81
2023/10/30 03:14:02;;;;;;;4.10;1.47;;;12.90;99.90;;;;;;5037083;28;20820;-80
2023/10/30 03:16:29;;;;;;;7.53;1.70;;;13.00;99.90;;;;;;5036765;28;20473;-79
2023/10/30 03:18:57;;;;;;;5.97;1.33;;;13.00;99.90;;;;;;5036121;28;20476;-79
2023/10/30 03:21:24;;;;;;;8.30;1.80;;;13.00;99.90;;;;;;5037419;28;20460;-80
2023/10/30 03:23:50;;;;;;;4.43;1.73;;;13.00;99.90;;;;;;5036912;28;20491;-81
2023/10/30 03:26:25;;;;;;;4.53;1.40;;;12.90;99.90;;;;;;5037299;28;20457;-80
2023/10/30 03:28:51;;;;;;;4.53;1.37;;;12.80;99.90;;;;;;5035711;28;20457;-79
2023/10/30 03:31:18;;;;;;;6.73;1.70;;;12.80;99.90;;;;;;5035801;28;20454;-79
2023/10/30 03:33:45;;;;;;;4.80;1.33;;;12.80;99.90;;;;;;5036895;28;20477;-80
2023/10/30 03:36:19;;;;;;;3.70;1.30;;;12.80;99.90;;;;;;5035692;28;20482;-77
2023/10/30 03:38:46;;;;;;;6.13;1.30;;;12.80;99.90;;;;;;5033500;28;20465;-78
2023/10/30 03:41:13;;;;;;;5.33;1.87;;;12.80;99.90;;;;;;5033742;28;20455;-78
2023/10/30 03:43:40;;;;;;;3.73;1.60;;;12.90;99.90;;;;;;5033688;28;20512;-79
2023/10/30 03:46:06;;;;;;;8.03;1.90;;;12.90;99.90;;;;;;5034668;28;20898;-80
2023/10/30 03:48:34;;;;;;;4.67;1.30;;;12.90;99.90;;;;;;5035467;28;20494;-80
2023/10/30 03:51:02;;;;;;;4.70;1.27;;;12.90;99.90;;;;;;5035814;28;20460;-80
2023/10/30 03:53:31;;;;;;;7.57;1.70;;;12.90;99.90;;;;;;5040169;28;20481;-80
2023/10/30 03:56:05;;;;;;;7.43;2.17;;;12.90;99.90;;;;;;5045812;28;20896;-78
2023/10/30 03:58:32;;;;;;;4.23;1.40;;;12.80;99.90;;;;;;5040892;28;20452;-80
2023/10/30 04:01:05;;;;;;;7.83;1.90;;;12.80;99.90;;;;;;5039074;28;20841;-80
2023/10/30 04:03:32;;;;;;;5.50;1.40;;;12.80;99.90;;;;;;5040577;28;20480;-80
2023/10/30 04:06:01;;;;;;;6.73;1.67;;;12.90;99.90;;;;;;5040066;28;20456;-80
2023/10/30 04:08:28;;;;;;;4.67;1.87;;;12.90;99.90;;;;;;5039762;28;20491;-79
2023/10/30 04:10:56;;;;;;;5.10;1.17;;;12.90;99.90;;;;;;5039782;28;20455;-79
2023/10/30 04:13:23;;;;;;;6.70;1.40;;;12.90;99.90;;;;;;5041080;28;20545;-80
2023/10/30 04:15:49;;;;;;;4.17;1.30;;;12.80;99.90;;;;;;5040633;28;20452;-80
2023/10/30 04:18:16;;;;;;;5.20;1.50;;;12.80;99.90;;;;;;5039520;28;20447;-79
2023/10/30 04:20:43;;;;;;;5.10;1.73;;;12.80;99.90;;;;;;5039092;28;20521;-77
2023/10/30 04:23:10;;;;;;;4.40;1.33;;;12.80;99.90;;;;;;5040422;28;20546;-78
2023/10/30 04:25:37;;;;;;;10.43;1.90;;;12.80;99.90;;;;;;5041281;28;20468;-79
2023/10/30 04:28:05;;;;;;;4.57;1.80;;;12.80;99.90;;;;;;5040971;28;20538;-79
2023/10/30 04:30:32;;;;;;;2.77;1.30;;;12.80;99.90;;;;;;5041135;28;20456;-81
2023/10/30 04:33:00;;;;;;;5.93;1.47;;;12.80;99.90;;;;;;5039870;28;20466;-78
2023/10/30 04:35:27;;;;;;;6.13;1.87;;;12.80;99.90;;;;;;5039959;28;20460;-80
2023/10/30 04:37:54;;;;;;;2.93;1.20;;;12.80;99.90;;;;;;5039403;28;20454;-81
2023/10/30 04:40:22;;;;;;;6.60;1.60;;;12.90;99.90;;;;;;5036331;28;20460;-81
2023/10/30 04:42:48;;;;;;;5.87;1.30;;;12.90;99.90;;;;;;5036328;28;20514;-79
2023/10/30 04:45:17;;;;;;;4.13;1.60;;;12.90;99.90;;;;;;5039633;28;20458;-80
2023/10/30 04:47:44;;;;;;;5.80;1.60;;;12.90;99.90;;;;;;5039395;28;20530;-80
2023/10/30 04:50:11;;;;;;;6.90;1.40;;;12.90;99.90;;;;;;5040219;28;20468;-78
2023/10/30 04:52:38;;;;;;;3.83;1.43;;;12.90;99.90;;;;;;5039954;28;20461;-79
2023/10/30 04:55:05;;;;;;;7.03;1.30;;;12.90;99.90;;;;;;5038933;28;20484;-78
2023/10/30 04:57:32;;;;;;;2.67;1.10;;;12.80;99.90;;;;;;5040250;28;20536;-78
2023/10/30 04:59:59;;;;;;;6.10;1.40;;;12.80;99.90;;;;;;5040185;28;20461;-78
2023/10/30 05:02:28;;;;;;;3.27;1.33;;;12.70;99.90;;;;;;5040656;28;20829;-78
2023/10/30 05:04:55;;;;;;;7.07;1.33;;;12.70;99.90;;;;;;5040155;28;20476;-77
2023/10/30 05:07:22;;;;;;;4.80;2.27;;;12.70;99.90;;;;;;5040803;28;20491;-78
2023/10/30 05:09:50;;;;;;;4.70;1.50;;;12.70;99.90;;;;;;5038000;28;20837;-78
2023/10/30 05:12:16;;;;;;;6.00;1.57;;;12.70;99.90;;;;;;5042272;28;20461;-79
2023/10/30 05:14:43;;;;;;;3.27;1.10;;;12.60;99.90;;;;;;5033726;28;20484;-78
2023/10/30 05:17:11;;;;;;;5.73;1.70;;;12.60;99.90;;;;;;5036191;28;20453;-78
2023/10/30 05:19:39;;;;;;;9.27;1.70;;;12.60;99.90;;;;;;5030501;28;20538;-79
2023/10/30 05:22:07;;;;;;;5.80;1.20;;;12.60;99.90;;;;;;5037605;28;20459;-77
2023/10/30 05:24:34;;;;;;;8.77;2.00;;;12.70;99.90;;;;;;5037888;28;20510;-77
2023/10/30 05:27:01;;;;;;;5.90;1.93;;;12.60;99.90;;;;;;5037299;28;20497;-79
2023/10/30 05:29:28;;;;;;;5.53;1.87;;;12.60;99.90;;;;;;5036549;28;20469;-79
2023/10/30 05:31:56;;;;;;;4.27;2.13;;;12.60;99.90;;;;;;5037981;28;20797;-78
2023/10/30 05:34:31;;;;;;;5.57;1.40;;;12.60;99.90;;;;;;5036891;28;20486;-79
2023/10/30 05:36:59;;;;;;;6.70;1.50;;;12.60;99.90;;;;;;5037772;28;20504;-79
2023/10/30 05:39:26;;;;;;;5.37;1.90;;;12.70;99.90;;;;;;5036243;28;20822;-78
2023/10/30 05:41:53;;;;;;;4.90;1.60;;;12.70;99.90;;;;;;5036410;28;20488;-78
2023/10/30 05:44:20;;;;;;;7.47;1.47;;;12.70;99.90;;;;;;5036595;28;20498;-80
2023/10/30 05:46:53;;;;;;;6.80;1.70;;;12.70;99.90;;;;;;5036358;28;20539;-79
2023/10/30 05:49:19;;;;;;;3.97;1.30;;;12.70;99.90;;;;;;5037264;28;20516;-78
2023/10/30 05:51:46;;;;;;;4.33;1.30;;;12.70;99.90;;;;;;5037290;28;20876;-78
2023/10/30 05:54:14;;;;;;;5.40;1.33;;;12.60;99.90;;;;;;5038352;28;20995;-79
2023/10/30 05:56:41;;;;;;;7.33;1.80;;;12.60;99.90;;;;;;5039226;28;20481;-79
2023/10/30 05:59:08;;;;;;;9.30;2.00;;;12.60;99.90;;;;;;5038642;28;20452;-78
2023/10/30 06:01:35;;;;;;;5.80;1.63;;;12.60;99.90;;;;;;5039525;28;20459;-79
2023/10/30 06:04:02;;;;;;;4.13;1.40;;;12.60;99.90;;;;;;5046903;28;20577;-79
2023/10/30 06:06:29;;;;;;;7.70;1.70;;;12.50;99.90;;;;;;5039926;28;20491;-80
2023/10/30 06:08:56;;;;;;;5.60;1.50;;;12.50;99.90;;;;;;5026595;28;20505;-77
2023/10/30 06:11:24;;;;;;;3.90;1.50;;;12.50;99.90;;;;;;5025332;28;20980;-79
2023/10/30 06:13:51;;;;;;;5.80;1.77;;;12.50;99.90;;;;;;5035570;28;20500;-79
2023/10/30 06:16:19;;;;;;;6.53;1.60;;;12.50;99.90;;;;;;5034681;28;20462;-78
2023/10/30 06:18:46;;;;;;;5.47;1.93;;;12.50;99.90;;;;;;5033117;28;20864;-79
2023/10/30 06:21:15;;;;;;;5.13;1.30;;;12.50;99.90;;;;;;5034938;28;20457;-80
2023/10/30 06:23:42;;;;;;;5.63;1.40;;;12.40;99.90;;;;;;5035134;28;20570;-79
2023/10/30 06:26:11;;;;;;;4.77;1.50;;;12.40;99.90;;;;;;5035732;28;21044;-79
2023/10/30 06:28:41;;;;;;;4.00;1.10;;;12.40;99.90;;;;;;5033318;28;20960;-79
2023/10/30 06:31:14;;;;;;;3.73;1.30;;;12.50;99.90;;;;;;5036725;28;20542;-80
2023/10/30 06:33:43;;;;;;;7.67;1.70;;;12.50;99.90;;;;;;5033371;28;20887;-80
2023/10/30 06:36:10;;;;;;;6.20;1.60;;;12.50;99.90;;;;;;5028198;28;20454;-80
2023/10/30 06:38:37;;;;;;;4.10;1.30;;;12.50;99.90;;;;;;5033344;28;20447;-79
2023/10/30 06:41:05;;;;;;;6.20;1.77;;;12.60;99.90;;;;;;5031954;28;20485;-77
2023/10/30 06:43:32;;;;;;;5.87;2.20;;;12.50;99.90;;;;;;5032604;28;20479;-79
2023/10/30 06:46:00;;;;;;;4.17;2.13;;;12.40;99.90;;;;;;5034277;28;20449;-78
2023/10/30 06:48:27;;;;;;;4.30;1.20;;;12.40;99.90;;;;;;5033334;28;20494;-80
2023/10/30 06:50:54;;;;;;;6.50;1.87;;;12.40;99.90;;;;;;5034688;28;20458;-80
2023/10/30 06:53:21;;;;;;;4.20;1.80;;;12.40;99.90;;;;;;5035364;28;20471;-78
2023/10/30 06:55:49;;;;;;;5.00;1.80;;;12.40;99.90;;;;;;5035018;28;20461;-79
2023/10/30 06:58:16;;;;;;;4.27;1.40;;;12.40;99.90;;;;;;5030900;28;20489;-79
2023/10/30 07:00:43;;;;;;;6.43;2.90;;;12.30;99.90;;;;;;5033073;28;20463;-78
2023/10/30 07:03:11;;;;;;;6.57;1.80;;;12.30;99.90;;;;;;5034997;28;20462;-80
2023/10/30 07:05:38;;;;;;;5.13;1.43;;;12.40;99.90;;;;;;5031281;28;20472;-79
2023/10/30 07:08:06;;;;;;;6.13;1.40;;;12.40;99.90;;;;;;5029112;28;20492;-82
2023/10/30 07:10:32;;;;;;;5.03;1.37;;;12.30;99.90;;;;;;5027296;28;20455;-79
2023/10/30 07:12:59;;;;;;;5.30;1.30;;;12.30;99.90;;;;;;5032796;28;20463;-78
2023/10/30 07:15:27;;;;;;;5.37;1.30;;;12.30;99.90;;;;;;5031931;28;20459;-80
2023/10/30 07:17:55;;;;;;;3.13;1.77;;;12.30;99.90;;;;;;5029765;28;20871;-80
2023/10/30 07:20:23;;;;;;;6.13;1.53;;;12.30;99.90;;;;;;5028266;28;20949;-79
2023/10/30 07:22:50;;;;;;;6.00;1.57;;;12.30;99.90;;;;;;5033445;28;20937;-79
2023/10/30 07:25:16;;;;;;;2.53;1.50;;;12.30;99.90;;;;;;5033270;28;20455;-80
2023/10/30 07:27:43;;;;;;;3.53;1.50;;;12.20;99.90;;;;;;5030970;28;20460;-80
2023/10/30 07:30:11;;;;;;;5.40;1.50;;;12.20;99.90;;;;;;5031143;28;20452;-79
2023/10/30 07:32:40;;;;;;;6.50;1.30;;;12.20;99.90;;;;;;5036240;28;20445;-78
2023/10/30 07:35:07;;;;;;;5.27;1.57;;;12.30;99.90;;;;;;5034688;28;20457;-79
2023/10/30 07:37:36;;;;;;;3.43;1.60;;;12.30;99.90;;;;;;5038149;28;20533;-79
2023/10/30 07:40:03;;;;;;;7.83;1.83;;;12.20;99.90;;;;;;5040135;28;20443;-78
2023/10/30 07:42:30;;;;;;;5.50;2.20;;;12.20;99.90;;;;;;5036929;28;20939;-80
2023/10/30 07:44:57;;;;;;;6.00;1.70;;;12.20;99.90;;;;;;5038158;28;20483;-79
2023/10/30 07:47:24;;;;;;;6.17;2.00;;;12.20;99.90;;;;;;5037251;28;20464;-79
2023/10/30 07:49:50;;;;;;;5.73;2.13;;;12.30;99.90;;;;;;5035776;28;20501;-80
2023/10/30 07:52:17;;;;;;;5.50;2.30;;;12.30;99.90;;;;;;5038746;28;20459;-80
2023/10/30 07:54:45;;;;;;;7.00;2.60;;;12.40;99.90;;;;;;5037648;28;20849;-79
2023/10/30 07:57:12;;;;;;;6.23;1.57;;;12.60;99.90;;;;;;5040654;28;20455;-80
2023/10/30 07:59:39;;;;;;;6.80;1.50;;;12.50;99.90;;;;;;5036274;28;20482;-80
2023/10/30 08:02:06;;;;;;;4.87;1.50;;;12.60;99.90;;;;;;5037468;28;20452;-78
2023/10/30 08:04:33;;;;;;;6.63;1.90;;;12.70;99.90;;;;;;5040208;28;20481;-79
2023/10/30 08:07:00;;;;;;;6.23;1.50;;;12.60;99.90;;;;;;5041284;28;20461;-80
2023/10/30 08:09:26;;;;;;;8.43;1.97;;;12.60;99.90;;;;;;5039953;28;20498;-78
2023/10/30 08:11:55;;;;;;;10.83;1.83;;;12.80;99.90;;;;;;5050990;28;20474;-79
2023/10/30 08:14:25;;;;;;;4.70;1.50;;;12.90;99.90;;;;;;5039612;28;20501;-79
2023/10/30 08:16:51;;;;;;;5.43;1.93;;;13.10;99.90;;;;;;5041363;28;20464;-79
2023/10/30 08:19:18;;;;;;;9.60;3.80;;;13.20;99.90;;;;;;5046611;28;20460;-80
2023/10/30 08:21:45;;;;;;;5.30;1.87;;;13.30;99.90;;;;;;5042887;28;20455;-80
2023/10/30 08:24:12;;;;;;;3.60;1.83;;;13.40;99.90;;;;;;5041857;28;20516;-80
2023/10/30 08:26:39;;;;;;;4.27;1.60;;;13.50;99.90;;;;;;5042454;28;20537;-79
2023/10/30 08:29:07;;;;;;;7.77;1.87;;;13.70;99.90;;;;;;5037058;28;20499;-80
2023/10/30 08:31:34;;;;;;;4.27;1.37;;;13.80;99.90;;;;;;5040426;28;20476;-78
2023/10/30 08:34:01;;;;;;;5.63;1.40;;;13.80;99.90;;;;;;5041834;28;20476;-77
2023/10/30 08:36:31;;;;;;;6.93;2.10;;;14.00;99.90;;;;;;5036315;28;20558;-80
2023/10/30 08:38:58;;;;;;;5.20;1.80;;;14.20;99.90;;;;;;5039010;28;20456;-80
2023/10/30 08:41:25;;;;;;;3.37;1.47;;;14.30;99.90;;;;;;5040418;28;20464;-77
2023/10/30 08:43:52;;;;;;;4.93;1.37;;;14.40;99.90;;;;;;5040835;28;20469;-79
2023/10/30 08:46:20;;;;;;;3.23;1.40;;;14.50;95.20;;;;;;5039002;28;20456;-80
2023/10/30 08:48:47;;;;;;;4.67;1.40;;;14.60;72.70;;;;;;5039183;28;20501;-79
2023/10/30 08:51:14;;;;;;;7.13;1.73;;;14.70;95.30;;;;;;5039311;28;20452;-79
2023/10/30 08:53:41;;;;;;;4.00;1.70;;;14.90;80.20;;;;;;5036601;28;20991;-78
2023/10/30 08:56:08;;;;;;;3.80;1.87;;;15.00;42.60;;;;;;5033782;28;20532;-79
2023/10/30 08:58:35;;;;;;;3.63;1.80;;;15.10;47.60;;;;;;5034988;28;20449;-79
2023/10/30 09:01:02;;;;;;;3.97;1.60;;;15.10;29.00;;;;;;5039443;28;20456;-81
2023/10/30 09:03:30;;;;;;;6.00;1.53;;;15.10;70.00;;;;;;5039375;28;20468;-80
2023/10/30 09:05:57;;;;;;;7.73;1.60;;;15.20;2.10;;;;;;5038546;28;20989;-79
2023/10/30 09:08:23;;;;;;;2.80;1.37;;;15.20;19.50;;;;;;5034865;28;20835;-78
2023/10/30 09:10:51;;;;;;;3.53;1.10;;;15.30;13.50;;;;;;5034031;28;20532;-81
2023/10/30 09:13:18;;;;;;;3.77;1.40;;;15.30;20.00;;;;;;5036398;28;20485;-80
2023/10/30 09:15:44;;;;;;;2.90;1.47;;;15.50;1.00;;;;;;5034777;28;20453;-80
2023/10/30 09:18:11;;;;;;;3.27;1.83;;;15.60;23.20;;;;;;5035520;28;20452;-80
2023/10/30 09:20:40;;;;;;;2.93;1.37;;;15.70;1.00;;;;;;5034832;28;20461;-79
2023/10/30 09:23:07;;;;;;;2.30;1.10;;;15.70;1.00;;;;;;5031901;28;20496;-79
2023/10/30 09:25:34;;;;;;;4.87;1.80;;;15.70;1.00;;;;;;5032354;28;20524;-80
2023/10/30 09:28:01;;;;;;;2.97;1.30;;;15.70;1.00;;;;;;5032572;28;20464;-81
2023/10/30 09:30:30;;;;;;;2.67;1.43;;;15.80;1.00;;;;;;5035594;28;20492;-80
2023/10/30 09:32:57;;;;;;;4.13;1.87;;;15.60;1.00;;;;;;5034331;28;20490;-80
2023/10/30 09:35:24;;;;;;;3.73;1.80;;;15.60;1.00;;;;;;5035804;28;20450;-79
2023/10/30 09:37:52;;;;;;;3.27;1.37;;;15.80;1.00;;;;;;5036412;28;20452;-79
2023/10/30 09:40:22;;;;;;;1.90;1.40;;;15.60;1.00;;;;;;5037457;28;20459;-77
2023/10/30 09:42:52;;;;;;;4.33;1.20;;;15.70;1.00;;;;;;5037004;28;20456;-78
2023/10/30 09:45:22;;;;;;;4.73;1.23;;;15.80;1.00;;;;;;5038702;28;20449;-78
2023/10/30 09:47:51;;;;;;;4.30;1.20;;;15.80;1.00;;;;;;5036877;28;20503;-77
2023/10/30 09:50:18;;;;;;;3.07;1.47;;;15.90;1.00;;;;;;5035273;28;20883;-79
2023/10/30 09:52:48;;;;;;;5.33;1.37;;;15.90;1.00;;;;;;5036571;28;20447;-79
2023/10/30 09:55:18;;;;;;;6.07;1.67;;;16.10;1.00;;;;;;5029892;28;20499;-79
2023/10/30 09:57:47;;;;;;;4.60;1.27;;;16.20;1.00;;;;;;5035636;28;20453;-79
2023/10/30 10:00:14;;;;;;;4.87;2.40;;;16.10;1.00;;;;;;5037417;28;20454;-81
2023/10/30 10:02:41;;;;;;;3.30;1.27;;;16.00;99.90;;;;;;5034902;28;20485;-80
2023/10/30 10:05:09;;;;;;;3.67;1.30;;;16.00;1.00;;;;;;5033509;28;20450;-80
2023/10/30 10:07:36;;;;;;;6.27;1.60;;;16.00;1.00;;;;;;5036120;28;21100;-81
2023/10/30 10:10:05;;;;;;;4.70;1.30;;;16.00;1.00;;;;;;5035070;28;20502;-81
2023/10/30 10:12:34;;;;;;;2.57;1.53;;;16.20;1.00;;;;;;5036287;28;20445;-78
2023/10/30 10:15:03;;;;;;;3.37;1.40;;;16.40;1.00;;;;;;5038803;28;20607;-81
2023/10/30 10:17:30;;;;;;;3.20;1.83;;;16.40;1.00;;;;;;5041726;28;20490;-77
2023/10/30 10:19:56;;;;;;;3.23;1.17;;;16.40;99.90;;;;;;5040869;28;20452;-80
2023/10/30 10:22:30;;;;;;;3.50;1.20;;;16.60;1.00;;;;;;5038485;28;20447;-79
2023/10/30 10:24:57;;;;;;;3.50;1.23;;;16.60;1.00;;;;;;5035880;28;20473;-80
2023/10/30 10:27:24;;;;;;;3.03;1.10;;;16.80;1.00;;;;;;5037114;28;20460;-78
2023/10/30 10:29:54;;;;;;;2.23;1.10;;;16.80;99.90;;;;;;5035761;28;20489;-79
2023/10/30 10:32:26;;;;;;;2.27;1.20;;;16.80;99.90;;;;;;5037394;28;20445;-79
2023/10/30 10:34:53;;;;;;;3.40;1.20;;;17.00;1.00;;;;;;5036283;28;20536;-80
2023/10/30 10:37:21;;;;;;;2.73;0.90;;;16.90;71.00;;;;;;5035969;28;20478;-78
2023/10/30 10:39:48;;;;;;;2.90;1.00;;;17.00;99.90;;;;;;5035896;28;20447;-79
2023/10/30 10:42:18;;;;;;;3.87;1.03;;;17.20;1.00;;;;;;5036488;28;20878;-79
2023/10/30 10:44:46;;;;;;;3.00;1.07;;;17.30;1.00;;;;;;5031300;28;20488;-78
2023/10/30 10:47:14;;;;;;;2.57;1.03;;;17.50;28.10;;;;;;5035325;28;20464;-80
2023/10/30 10:49:41;;;;;;;3.40;1.10;;;17.60;99.90;;;;;;5033772;28;20496;-81
2023/10/30 10:52:12;;;;;;;3.77;1.20;;;17.60;99.90;;;;;;5034754;28;20464;-81
2023/10/30 10:54:46;;;;;;;2.30;1.10;;;17.90;99.90;;;;;;5034307;28;20490;-80
2023/10/30 10:57:17;;;;;;;5.13;1.53;;;18.30;99.90;;;;;;5027706;28;20447;-80
2023/10/30 10:59:47;;;;;;;3.07;1.03;;;19.10;1.00;;;;;;5033297;28;20455;-79
2023/10/30 11:02:21;;;;;;;2.10;0.97;;;20.10;99.90;;;;;;5034168;28;20496;-81
2023/10/30 11:04:49;;;;;;;2.10;0.80;;;21.30;16.40;;;;;;5034231;28;20472;-80
2023/10/30 11:07:25;;;;;;;2.77;1.20;;;22.40;1.00;;;;;;5035231;28;20451;-80
2023/10/30 11:09:55;;;;;;;1.90;1.13;;;22.80;1.00;;;;;;5034919;28;20496;-80
2023/10/30 11:12:34;;;;;;;1.90;0.90;;;22.60;1.00;;;;;;5034769;28;20543;-81
2023/10/30 11:15:08;;;;;;;2.33;0.93;;;22.10;1.00;;;;;;5033390;28;20483;-80
2023/10/30 11:17:37;;;;;;;2.60;1.10;;;21.90;1.00;;;;;;5035417;28;20816;-80
2023/10/30 11:20:07;;;;;;;1.80;0.90;;;21.50;1.00;;;;;;5033929;28;21141;-80
2023/10/30 11:22:38;;;;;;;2.77;1.00;;;21.20;1.00;;;;;;5035357;28;20456;-82
2023/10/30 11:25:07;;;;;;;2.27;1.00;;;20.90;1.00;;;;;;5032755;28;20488;-78
2023/10/30 11:27:35;;;;;;;3.10;1.03;;;20.40;1.00;;;;;;5031009;28;20461;-78
2023/10/30 11:30:05;;;;;;;2.43;1.00;;;20.20;99.90;;;;;;5031653;28;21016;-79
2023/10/30 11:32:32;;;;;;;3.20;1.53;;;19.80;99.90;;;;;;5032484;28;20460;-79
2023/10/30 11:35:01;;;;;;;3.03;1.10;;;19.80;78.30;;;;;;5033336;28;20477;-79
2023/10/30 11:37:32;;;;;;;2.63;1.00;;;20.10;99.90;;;;;;5033456;28;20499;-79
2023/10/30 11:40:02;;;;;;;1.73;0.90;;;20.80;94.40;;;;;;5033786;28;20580;-79
2023/10/30 11:42:33;;;;;;;1.80;1.00;;;21.80;1.00;;;;;;5035907;28;20836;-80
2023/10/30 11:45:19;;;;;;;2.20;1.00;;;22.20;1.00;;;;;;5034634;28;20477;-79
2023/10/30 11:47:50;;;;;;;2.10;1.40;;;22.00;1.00;;;;;;5029475;28;20520;-78
2023/10/30 11:50:26;;;;;;;2.60;1.00;;;21.70;1.00;;;;;;5033870;28;20554;-78
2023/10/30 11:52:53;;;;;;;2.27;1.00;;;20.50;1.00;;;;;;5033689;28;20790;-82
2023/10/30 11:55:20;;;;;;;1.93;1.00;;;19.90;78.30;;;;;;5032820;28;20457;-78
2023/10/30 11:57:51;;;;;;;1.80;0.90;;;19.70;99.90;;;;;;5040783;28;20515;-78
2023/10/30 12:00:19;;;;;;;1.90;0.83;;;19.40;99.90;;;;;;5042134;28;20484;-79
2023/10/30 12:02:47;;;;;;;4.27;1.00;;;19.10;99.90;;;;;;5040510;28;20461;-80
2023/10/30 12:05:13;;;;;;;2.27;1.00;;;18.80;1.00;;;;;;5038876;28;20448;-78
2023/10/30 12:07:42;;;;;;;2.20;0.93;;;18.50;1.00;;;;;;5040224;28;20510;-78
2023/10/30 12:10:12;;;;;;;2.60;0.93;;;18.40;99.90;;;;;;5032301;28;20492;-79
2023/10/30 12:12:39;;;;;;;2.57;0.93;;;18.20;99.90;;;;;;5039303;28;20440;-78
2023/10/30 12:15:07;;;;;;;2.80;1.30;;;18.10;1.00;;;;;;5041735;28;20473;-78
2023/10/30 12:17:34;;;;;;;4.07;1.07;;;18.00;1.00;;;;;;5041149;28;20531;-79
2023/10/30 12:20:01;;;;;;;2.00;0.80;;;18.00;99.90;;;;;;5041579;28;20548;-78
2023/10/30 12:22:28;;;;;;;1.90;0.70;;;17.90;25.30;;;;;;5037814;28;20461;-79
2023/10/30 12:24:57;;;;;;;2.60;0.80;;;17.90;1.00;;;;;;5042282;28;20473;-78
2023/10/30 12:27:25;;;;;;;2.00;0.80;;;17.70;1.00;;;;;;5045830;28;20889;-78
2023/10/30 12:29:56;;;;;;;4.10;1.40;;;17.60;1.00;;;;;;5042772;28;20488;-78
2023/10/30 12:32:26;;;;;;;1.80;0.80;;;17.60;1.00;;;;;;5043728;28;20527;-79
2023/10/30 12:34:53;;;;;;;4.03;0.87;;;17.70;99.90;;;;;;5041906;28;20481;-80
2023/10/30 12:37:23;;;;;;;2.70;0.80;;;17.70;39.20;;;;;;5043335;28;20461;-77
2023/10/30 12:40:05;;;;;;;2.17;1.00;;;17.70;99.90;;;;;;5040367;28;20454;-80
2023/10/30 12:42:34;;;;;;;2.57;1.10;;;17.70;99.90;;;;;;5042192;28;20458;-79
2023/10/30 12:45:06;;;;;;;2.73;0.80;;;17.70;1.00;;;;;;5039269;28;20483;-79
2023/10/30 12:47:33;;;;;;;1.93;0.87;;;17.60;99.90;;;;;;5041663;28;20460;-79
2023/10/30 12:50:00;;;;;;;1.77;0.90;;;17.60;1.00;;;;;;5038838;28;20529;-78
2023/10/30 12:52:27;;;;;;;2.43;0.90;;;17.50;99.90;;;;;;5040302;28;20453;-78